createdAt,value
2023-01-19T00:00:54.476Z,3.72
2023-01-19T00:03:21.824Z,3.71
2023-01-19T00:05:50.003Z,3.71
2023-01-19T00:08:18.173Z,3.70
2023-01-19T00:10:47.157Z,3.69
2023-01-19T00:13:14.507Z,3.70
2023-01-19T00:15:41.554Z,3.71
2023-01-19T00:18:10.563Z,3.71
2023-01-19T00:20:39.550Z,3.71
2023-01-19T00:23:09.597Z,3.69
2023-01-19T00:25:41.750Z,3.66
2023-01-19T00:28:12.708Z,3.66
2023-01-19T00:30:42.884Z,3.66
2023-01-19T00:33:10.791Z,3.67
2023-01-19T00:35:38.307Z,3.67
2023-01-19T00:38:10.125Z,3.66
2023-01-19T00:40:37.417Z,3.64
2023-01-19T00:43:04.850Z,3.65
2023-01-19T00:45:32.680Z,3.66
2023-01-19T00:47:59.908Z,3.66
2023-01-19T00:50:27.768Z,3.68
2023-01-19T00:52:55.271Z,3.69
2023-01-19T00:55:22.713Z,3.69
2023-01-19T00:57:50.029Z,3.69
2023-01-19T01:00:20.526Z,3.69
2023-01-19T01:02:49.283Z,3.67
2023-01-19T01:05:17.627Z,3.64
2023-01-19T01:07:49.073Z,3.63
2023-01-19T01:10:20.089Z,3.61
2023-01-19T01:12:57.411Z,3.59
2023-01-19T01:15:26.905Z,3.58
2023-01-19T01:17:54.526Z,3.56
2023-01-19T01:20:23.744Z,3.54
2023-01-19T01:30:41.346Z,3.52
2023-01-19T01:33:08.749Z,3.50
2023-01-19T01:35:35.738Z,3.50
2023-01-19T01:38:03.119Z,3.51
2023-01-19T01:40:30.460Z,3.51
2023-01-19T01:42:57.904Z,3.49
2023-01-19T01:45:31.394Z,3.49
2023-01-19T01:48:02.239Z,3.48
2023-01-19T01:50:30.531Z,3.49
2023-01-19T01:53:07.149Z,3.47
2023-01-19T01:55:44.418Z,3.46
2023-01-19T01:58:11.668Z,3.47
2023-01-19T02:00:57.438Z,3.48
2023-01-19T02:03:24.925Z,3.49
2023-01-19T02:05:52.552Z,3.50
2023-01-19T02:08:40.791Z,3.53
2023-01-19T02:11:26.893Z,3.55
2023-01-19T02:13:54.041Z,3.55
2023-01-19T02:16:21.142Z,3.53
2023-01-19T02:18:48.439Z,3.51
2023-01-19T02:21:52.411Z,3.49
2023-01-19T02:24:19.741Z,3.48
2023-01-19T02:26:47.619Z,3.48
2023-01-19T02:29:19.128Z,3.50
2023-01-19T02:31:46.117Z,3.51
2023-01-19T02:34:17.323Z,3.51
2023-01-19T02:36:44.471Z,3.52
2023-01-19T02:39:11.618Z,3.53
2023-01-19T02:41:43.523Z,3.54
2023-01-19T02:44:10.660Z,3.57
2023-01-19T02:46:38.498Z,3.59
2023-01-19T02:49:05.547Z,3.60
2023-01-19T02:51:32.746Z,3.59
2023-01-19T02:54:22.472Z,3.59
2023-01-19T02:56:49.623Z,3.60
2023-01-19T02:59:37.915Z,3.62
2023-01-19T03:02:27.115Z,3.61
2023-01-19T03:05:45.793Z,3.60
2023-01-19T03:08:55.132Z,3.59
2023-01-19T03:11:22.205Z,3.57
2023-01-19T03:14:04.890Z,3.57
2023-01-19T03:16:38.109Z,3.54
2023-01-19T03:19:31.767Z,3.52
2023-01-19T03:22:01.985Z,3.53
2023-01-19T03:24:29.953Z,3.51
2023-01-19T03:27:00.425Z,3.51
2023-01-19T03:29:28.989Z,3.51
2023-01-19T03:31:56.742Z,3.49
2023-01-19T03:34:24.282Z,3.50
2023-01-19T03:36:54.144Z,3.55
2023-01-19T03:39:25.345Z,3.53
2023-01-19T03:41:54.296Z,3.53
2023-01-19T03:44:21.546Z,3.53
2023-01-19T03:46:50.700Z,3.51
2023-01-19T03:49:17.880Z,3.49
2023-01-19T03:51:44.989Z,3.49
2023-01-19T03:54:12.177Z,3.49
2023-01-19T03:56:39.301Z,3.48
2023-01-19T03:59:07.812Z,3.48
2023-01-19T04:01:36.103Z,3.49
2023-01-19T04:04:03.221Z,3.48
2023-01-19T04:06:30.345Z,3.49
2023-01-19T04:08:57.491Z,3.49
2023-01-19T04:11:24.652Z,3.48
2023-01-19T04:13:51.894Z,3.45
2023-01-19T04:16:21.491Z,3.43
2023-01-19T04:18:48.876Z,3.40
2023-01-19T04:21:16.111Z,3.39
2023-01-19T04:23:44.619Z,3.40
2023-01-19T04:26:11.706Z,3.41
2023-01-19T04:28:38.932Z,3.43
2023-01-19T04:31:06.678Z,3.44
2023-01-19T04:33:33.969Z,3.45
2023-01-19T04:36:01.162Z,3.47
2023-01-19T04:38:28.419Z,3.47
2023-01-19T04:40:55.960Z,3.49
2023-01-19T04:43:23.845Z,3.48
2023-01-19T04:45:51.294Z,3.48
2023-01-19T04:48:18.673Z,3.46
2023-01-19T04:50:46.317Z,3.44
2023-01-19T04:53:13.981Z,3.43
2023-01-19T04:55:41.352Z,3.43
2023-01-19T04:58:08.346Z,3.45
2023-01-19T05:00:35.793Z,3.44
2023-01-19T05:03:03.388Z,3.43
2023-01-19T05:05:30.856Z,3.41
2023-01-19T05:07:58.003Z,3.39
2023-01-19T05:10:25.574Z,3.39
2023-01-19T05:12:52.815Z,3.35
2023-01-19T05:15:19.972Z,3.35
2023-01-19T05:17:47.122Z,3.33
2023-01-19T05:20:16.406Z,3.34
2023-01-19T05:22:48.860Z,3.33
2023-01-19T05:25:16.215Z,3.33
2023-01-19T05:27:43.498Z,3.37
2023-01-19T05:30:12.044Z,3.41
2023-01-19T05:32:39.822Z,3.39
2023-01-19T05:35:07.815Z,3.39
2023-01-19T05:37:34.966Z,3.38
2023-01-19T05:40:02.212Z,3.38
2023-01-19T05:42:30.832Z,3.36
2023-01-19T05:44:59.796Z,3.32
2023-01-19T05:47:26.950Z,3.30
2023-01-19T05:49:54.095Z,3.29
2023-01-19T05:52:22.079Z,3.29
2023-01-19T05:54:49.228Z,3.23
2023-01-19T05:57:16.384Z,3.16
2023-01-19T05:59:43.626Z,3.08
2023-01-19T06:02:10.882Z,3.00
2023-01-19T06:04:38.057Z,2.90
2023-01-19T06:07:07.070Z,2.82
2023-01-19T06:09:34.173Z,2.75
2023-01-19T06:12:01.646Z,2.71
2023-01-19T06:14:28.702Z,2.68
2023-01-19T06:16:56.030Z,2.66
2023-01-19T06:19:23.104Z,2.66
2023-01-19T06:21:52.518Z,2.68
2023-01-19T06:24:19.976Z,2.74
2023-01-19T06:26:47.156Z,2.80
2023-01-19T06:29:14.897Z,2.87
2023-01-19T06:31:42.638Z,2.96
2023-01-19T06:34:09.862Z,3.03
2023-01-19T06:36:37.117Z,3.07
2023-01-19T06:39:06.152Z,3.11
2023-01-19T06:41:33.986Z,3.15
2023-01-19T06:44:01.536Z,3.18
2023-01-19T06:46:29.200Z,3.21
2023-01-19T06:48:56.451Z,3.26
2023-01-19T06:51:24.123Z,3.34
2023-01-19T06:53:51.273Z,3.39
2023-01-19T06:56:18.512Z,3.47
2023-01-19T06:58:50.797Z,3.55
2023-01-19T07:01:18.031Z,3.59
2023-01-19T07:03:46.870Z,3.65
2023-01-19T07:06:15.104Z,3.73
2023-01-19T07:08:42.212Z,3.81
2023-01-19T07:11:26.218Z,3.87
2023-01-19T07:13:58.718Z,3.99
2023-01-19T07:16:26.105Z,4.08
2023-01-19T07:18:53.328Z,4.18
2023-01-19T07:21:20.736Z,4.24
2023-01-19T07:23:51.786Z,4.27
2023-01-19T07:26:21.646Z,4.29
2023-01-19T07:28:49.194Z,4.33
2023-01-19T07:31:16.541Z,4.33
2023-01-19T07:33:44.020Z,4.36
2023-01-19T07:36:11.289Z,4.44
2023-01-19T07:38:39.230Z,4.51
2023-01-19T07:41:08.073Z,4.58
2023-01-19T07:43:35.238Z,4.66
2023-01-19T07:46:05.318Z,4.77
2023-01-19T07:48:32.573Z,4.91
2023-01-19T07:51:11.045Z,5.09
2023-01-19T07:53:40.324Z,5.29
2023-01-19T07:56:08.024Z,5.47
2023-01-19T07:58:35.157Z,5.65
2023-01-19T08:01:09.452Z,5.80
2023-01-19T08:03:36.905Z,5.96
2023-01-19T08:06:05.687Z,6.11
2023-01-19T08:08:33.470Z,6.25
2023-01-19T08:11:00.707Z,6.36
2023-01-19T08:13:28.116Z,6.44
2023-01-19T08:15:55.245Z,6.50
2023-01-19T08:18:22.323Z,6.53
2023-01-19T08:20:49.527Z,6.57
2023-01-19T08:23:18.366Z,6.62
2023-01-19T08:25:46.209Z,6.70
2023-01-19T08:28:15.301Z,6.83
2023-01-19T08:30:44.511Z,6.97
2023-01-19T08:33:12.648Z,7.27
2023-01-19T08:35:49.124Z,7.74
2023-01-19T08:38:17.278Z,8.16
2023-01-19T08:40:44.637Z,8.49
2023-01-19T08:43:13.634Z,8.75
2023-01-19T08:45:42.661Z,9.14
2023-01-19T08:48:10.504Z,9.50
2023-01-19T08:50:37.631Z,9.95
2023-01-19T08:53:07.655Z,10.36
2023-01-19T08:55:35.833Z,10.69
2023-01-19T08:58:06.610Z,10.93
2023-01-19T09:00:34.563Z,11.17
2023-01-19T09:03:03.589Z,11.34
2023-01-19T09:05:37.263Z,11.34
2023-01-19T09:08:06.279Z,11.39
2023-01-19T09:10:36.195Z,11.57
2023-01-19T09:13:05.331Z,11.62
2023-01-19T09:15:34.284Z,11.49
2023-01-19T09:18:02.642Z,11.33
2023-01-19T09:20:31.403Z,11.24
2023-01-19T09:22:58.642Z,11.09
2023-01-19T09:25:25.794Z,10.88
2023-01-19T09:27:53.313Z,10.71
2023-01-19T09:30:20.497Z,10.69
2023-01-19T09:32:47.572Z,10.68
2023-01-19T09:35:15.315Z,10.72
2023-01-19T09:37:46.469Z,10.96
2023-01-19T09:40:14.123Z,11.23
2023-01-19T09:42:43.801Z,11.51
2023-01-19T09:45:16.987Z,11.70
2023-01-19T09:47:44.127Z,11.65
2023-01-19T09:50:25.969Z,11.65
2023-01-19T09:53:07.514Z,11.82
2023-01-19T09:55:34.605Z,11.97
2023-01-19T09:58:02.202Z,11.93
2023-01-19T10:00:29.643Z,11.84
2023-01-19T10:03:27.793Z,11.73
2023-01-19T10:05:56.310Z,11.62
2023-01-19T10:08:47.898Z,11.54
2023-01-19T10:11:52.653Z,11.42
2023-01-19T10:14:40.415Z,11.23
2023-01-19T10:17:22.163Z,11.09
2023-01-19T10:19:50.232Z,10.85
2023-01-19T10:22:24.676Z,10.80
2023-01-19T10:25:02.385Z,11.03
2023-01-19T10:27:34.213Z,11.31
2023-01-19T10:30:01.793Z,11.51
2023-01-19T10:32:34.268Z,11.63
2023-01-19T10:35:01.487Z,11.80
2023-01-19T10:37:38.268Z,11.90
2023-01-19T10:40:11.912Z,11.92
2023-01-19T10:42:40.465Z,12.00
2023-01-19T10:45:21.263Z,12.13
2023-01-19T10:47:48.925Z,12.20
2023-01-19T10:50:25.338Z,12.20
2023-01-19T10:52:54.256Z,12.09
2023-01-19T10:55:25.888Z,11.97
2023-01-19T10:57:53.809Z,11.90
2023-01-19T11:00:31.741Z,11.84
2023-01-19T11:02:59.341Z,11.72
2023-01-19T11:05:28.805Z,11.60
2023-01-19T11:07:56.920Z,11.41
2023-01-19T11:10:26.010Z,11.13
2023-01-19T11:12:56.032Z,10.77
2023-01-19T11:15:29.532Z,10.35
2023-01-19T11:17:56.579Z,9.97
2023-01-19T11:20:26.013Z,9.73
2023-01-19T11:23:05.750Z,9.49
2023-01-19T11:25:34.413Z,9.27
2023-01-19T11:28:01.584Z,9.17
2023-01-19T11:30:28.702Z,9.03
2023-01-19T11:32:56.640Z,8.92
2023-01-19T11:35:38.305Z,8.78
2023-01-19T11:38:18.642Z,8.65
2023-01-19T11:41:06.924Z,8.51
2023-01-19T11:43:48.268Z,8.40
2023-01-19T11:46:16.522Z,8.28
2023-01-19T11:49:03.654Z,8.22
2023-01-19T11:51:47.586Z,8.18
2023-01-19T11:54:20.132Z,8.09
2023-01-19T11:56:48.130Z,7.95
2023-01-19T11:59:15.187Z,7.84
2023-01-19T12:01:46.824Z,7.69
2023-01-19T12:04:15.182Z,7.58
2023-01-19T12:06:45.026Z,7.49
2023-01-19T12:09:23.770Z,7.43
2023-01-19T12:12:26.287Z,7.39
2023-01-19T12:15:01.963Z,7.33
2023-01-19T12:17:49.077Z,7.29
2023-01-19T12:20:19.323Z,7.27
2023-01-19T12:22:50.846Z,7.28
2023-01-19T12:25:53.943Z,7.28
2023-01-19T12:28:26.338Z,7.31
2023-01-19T12:30:53.872Z,7.37
2023-01-19T12:33:34.209Z,7.43
2023-01-19T12:36:05.321Z,7.51
2023-01-19T12:38:54.953Z,7.57
2023-01-19T12:41:23.172Z,7.60
2023-01-19T12:44:10.581Z,7.60
2023-01-19T12:46:38.953Z,7.57
2023-01-19T12:49:29.142Z,7.53
2023-01-19T12:52:13.734Z,7.50
2023-01-19T12:54:43.056Z,7.47
2023-01-19T12:57:28.397Z,7.46
2023-01-19T13:00:00.686Z,7.46
2023-01-19T13:02:28.299Z,7.44
2023-01-19T13:05:33.599Z,7.43
2023-01-19T13:08:07.060Z,7.41
2023-01-19T13:11:12.571Z,7.39
2023-01-19T13:13:49.077Z,7.36
2023-01-19T13:16:20.735Z,7.33
2023-01-19T13:19:06.865Z,7.30
2023-01-19T13:21:44.689Z,7.30
2023-01-19T13:24:16.629Z,7.28
2023-01-19T13:26:57.988Z,7.25
2023-01-19T13:29:34.177Z,7.24
2023-01-19T13:32:06.159Z,7.22
2023-01-19T13:34:40.515Z,7.19
2023-01-19T13:37:09.405Z,7.16
2023-01-19T13:39:38.106Z,7.13
2023-01-19T13:42:33.041Z,7.09
2023-01-19T13:45:01.345Z,7.03
2023-01-19T13:47:44.018Z,6.96
2023-01-19T13:50:27.172Z,6.86
2023-01-19T13:52:55.873Z,6.75
2023-01-19T13:55:23.765Z,6.68
2023-01-19T13:57:51.631Z,6.62
2023-01-19T14:00:38.748Z,6.57
2023-01-19T14:03:15.383Z,6.53
2023-01-19T14:05:43.523Z,6.50
2023-01-19T14:08:13.782Z,6.47
2023-01-19T14:11:02.534Z,6.45
2023-01-19T14:13:34.266Z,6.43
2023-01-19T14:16:17.127Z,6.40
2023-01-19T14:18:44.234Z,6.38
2023-01-19T14:21:14.863Z,6.36
2023-01-19T14:23:49.975Z,6.34
2023-01-19T14:26:40.156Z,6.31
2023-01-19T14:29:10.634Z,6.29
2023-01-19T14:31:52.889Z,6.25
2023-01-19T14:34:42.975Z,6.19
2023-01-19T14:37:22.438Z,6.14
2023-01-19T14:39:55.526Z,6.06
2023-01-19T14:42:31.121Z,5.97
2023-01-19T14:45:00.257Z,5.88
2023-01-19T14:47:46.606Z,5.81
2023-01-19T14:50:34.350Z,5.71
2023-01-19T14:53:03.383Z,5.64
2023-01-19T14:55:39.930Z,5.56
2023-01-19T14:58:17.644Z,5.50
2023-01-19T15:00:45.186Z,5.47
2023-01-19T15:03:12.355Z,5.44
2023-01-19T15:05:40.138Z,5.40
2023-01-19T15:08:07.372Z,5.36
2023-01-19T15:10:35.347Z,5.31
2023-01-19T15:13:02.375Z,5.26
2023-01-19T15:15:34.043Z,5.23
2023-01-19T15:18:02.320Z,5.19
2023-01-19T15:20:29.535Z,5.18
2023-01-19T15:22:56.653Z,5.17
2023-01-19T15:25:27.172Z,5.15
2023-01-19T15:27:56.485Z,5.11
2023-01-19T15:30:29.750Z,5.08
2023-01-19T15:32:57.203Z,5.05
2023-01-19T15:35:24.355Z,5.01
2023-01-19T15:37:51.643Z,4.98
2023-01-19T15:40:19.602Z,4.97
2023-01-19T15:42:46.929Z,4.94
2023-01-19T15:45:39.768Z,4.92
2023-01-19T15:48:16.042Z,4.90
2023-01-19T15:50:44.656Z,4.87
2023-01-19T15:53:16.670Z,4.85
2023-01-19T15:55:43.964Z,4.85
2023-01-19T15:58:13.893Z,4.84
2023-01-19T16:00:41.311Z,4.81
2023-01-19T16:03:08.802Z,4.79
2023-01-19T16:05:42.808Z,4.77
2023-01-19T16:08:11.748Z,4.74
2023-01-19T16:10:39.871Z,4.72
2023-01-19T16:13:06.929Z,4.70
2023-01-19T16:15:37.639Z,4.69
2023-01-19T16:18:05.111Z,4.68
2023-01-19T16:20:32.249Z,4.66
2023-01-19T16:23:13.847Z,4.64
2023-01-19T16:25:42.016Z,4.61
2023-01-19T16:28:09.358Z,4.57
2023-01-19T16:30:36.479Z,4.53
2023-01-19T16:33:05.526Z,4.51
2023-01-19T16:35:32.651Z,4.49
2023-01-19T16:37:59.694Z,4.46
2023-01-19T16:40:26.848Z,4.45
2023-01-19T16:42:54.219Z,4.42
2023-01-19T16:45:21.356Z,4.39
2023-01-19T16:47:50.958Z,4.36
2023-01-19T16:50:18.633Z,4.31
2023-01-19T16:52:45.952Z,4.27
2023-01-19T16:55:13.136Z,4.23
2023-01-19T16:57:40.338Z,4.19
2023-01-19T17:00:12.540Z,4.14
2023-01-19T17:02:40.255Z,4.10
2023-01-19T17:05:07.983Z,4.07
2023-01-19T17:07:35.139Z,4.05
2023-01-19T17:10:02.411Z,4.04
2023-01-19T17:12:32.080Z,4.01
2023-01-19T17:14:59.448Z,3.99
2023-01-19T17:17:26.801Z,3.95
2023-01-19T17:19:53.839Z,3.93
2023-01-19T17:22:21.007Z,3.90
2023-01-19T17:24:48.458Z,3.86
2023-01-19T17:27:16.428Z,3.80
2023-01-19T17:29:43.643Z,3.77
2023-01-19T17:32:10.928Z,3.74
2023-01-19T17:34:38.382Z,3.72
2023-01-19T17:37:05.462Z,3.68
2023-01-19T17:39:32.884Z,3.65
2023-01-19T17:42:00.037Z,3.63
2023-01-19T17:44:27.188Z,3.59
2023-01-19T17:46:54.335Z,3.57
2023-01-19T17:49:21.443Z,3.52
2023-01-19T17:51:53.695Z,3.53
2023-01-19T17:54:20.947Z,3.51
2023-01-19T17:56:48.370Z,3.55
2023-01-19T17:59:15.516Z,3.55
2023-01-19T18:01:44.776Z,3.53
2023-01-19T18:04:11.920Z,3.50
2023-01-19T18:06:39.334Z,3.47
2023-01-19T18:09:07.824Z,3.42
2023-01-19T18:11:35.055Z,3.37
2023-01-19T18:14:02.409Z,3.32
2023-01-19T18:16:30.765Z,3.28
2023-01-19T18:18:58.243Z,3.25
2023-01-19T18:21:27.490Z,3.22
2023-01-19T18:24:02.434Z,3.20
2023-01-19T18:26:30.151Z,3.20
2023-01-19T18:28:57.806Z,3.20
2023-01-19T18:31:25.704Z,3.17
2023-01-19T18:33:53.433Z,3.16
2023-01-19T18:36:21.132Z,3.17
2023-01-19T18:38:49.085Z,3.17
2023-01-19T18:41:17.892Z,3.15
2023-01-19T18:43:45.368Z,3.13
2023-01-19T18:46:13.143Z,3.13
2023-01-19T18:48:40.484Z,3.14
2023-01-19T18:51:08.907Z,3.14
2023-01-19T18:53:36.349Z,3.12
2023-01-19T18:56:03.845Z,3.11
2023-01-19T18:58:31.994Z,3.13
2023-01-19T19:01:00.125Z,3.12
2023-01-19T19:03:27.529Z,3.11
2023-01-19T19:05:54.930Z,3.09
2023-01-19T19:08:22.340Z,3.07
2023-01-19T19:10:49.651Z,3.04
2023-01-19T19:13:17.569Z,3.03
2023-01-19T19:15:44.984Z,3.01
2023-01-19T19:18:14.259Z,2.98
2023-01-19T19:20:43.535Z,2.94
2023-01-19T19:23:11.386Z,2.90
2023-01-19T19:25:38.740Z,2.87
2023-01-19T19:28:05.988Z,2.82
2023-01-19T19:30:34.929Z,2.76
2023-01-19T19:33:02.772Z,2.71
2023-01-19T19:35:29.918Z,2.65
2023-01-19T19:37:58.017Z,2.60
2023-01-19T19:40:28.919Z,2.54
2023-01-19T19:42:58.608Z,2.49
2023-01-19T19:45:26.488Z,2.44
2023-01-19T19:47:53.859Z,2.40
2023-01-19T19:50:20.987Z,2.38
2023-01-19T19:52:48.074Z,2.33
2023-01-19T19:55:15.448Z,2.29
2023-01-19T19:57:42.881Z,2.25
2023-01-19T20:00:11.125Z,2.23
2023-01-19T20:02:38.814Z,2.19
2023-01-19T20:05:06.391Z,2.17
2023-01-19T20:07:33.826Z,2.14
2023-01-19T20:10:00.985Z,2.11
2023-01-19T20:12:28.131Z,2.09
2023-01-19T20:14:55.565Z,2.08
2023-01-19T20:17:23.459Z,2.06
2023-01-19T20:19:50.587Z,2.06
2023-01-19T20:22:17.776Z,2.05
2023-01-19T20:24:45.083Z,2.05
2023-01-19T20:27:12.384Z,2.04
2023-01-19T20:29:39.745Z,2.04
2023-01-19T20:32:07.352Z,2.05
2023-01-19T20:34:35.852Z,2.07
2023-01-19T20:37:04.949Z,2.10
2023-01-19T20:39:34.130Z,2.11
2023-01-19T20:42:01.766Z,2.13
2023-01-19T20:44:29.152Z,2.12
2023-01-19T20:46:56.635Z,2.12
2023-01-19T20:49:23.955Z,2.13
2023-01-19T20:51:52.373Z,2.14
2023-01-19T20:54:20.843Z,2.12
2023-01-19T20:56:48.296Z,2.11
2023-01-19T20:59:15.650Z,2.10
2023-01-19T21:01:43.103Z,2.11
2023-01-19T21:04:11.195Z,2.14
2023-01-19T21:06:38.821Z,2.17
2023-01-19T21:09:07.058Z,2.17
2023-01-19T21:11:34.383Z,2.16
2023-01-19T21:14:01.743Z,2.15
2023-01-19T21:16:30.335Z,2.16
2023-01-19T21:18:57.643Z,2.14
2023-01-19T21:21:30.833Z,2.10
2023-01-19T21:24:02.185Z,2.07
2023-01-19T21:26:33.765Z,2.03
2023-01-19T21:29:02.028Z,2.01
2023-01-19T21:31:29.399Z,2.02
2023-01-19T21:33:59.720Z,1.99
2023-01-19T21:36:27.260Z,1.97
2023-01-19T21:39:00.784Z,1.96
2023-01-19T21:41:28.666Z,1.93
2023-01-19T21:43:55.934Z,1.93
2023-01-19T21:46:29.646Z,1.93
2023-01-19T21:48:57.650Z,1.91
2023-01-19T21:51:25.104Z,1.90
2023-01-19T21:54:00.347Z,1.90
2023-01-19T21:56:28.196Z,1.88
2023-01-19T21:58:56.387Z,1.87
2023-01-19T22:02:33.257Z,1.89
2023-01-19T22:05:06.805Z,1.85
2023-01-19T22:07:33.841Z,1.83
2023-01-19T22:10:01.210Z,1.83
2023-01-19T22:12:28.465Z,1.85
2023-01-19T22:14:55.517Z,1.85
2023-01-19T22:17:22.651Z,1.86
2023-01-19T22:19:49.914Z,1.86
2023-01-19T22:22:17.053Z,1.86
2023-01-19T22:24:46.811Z,1.84
2023-01-19T22:27:14.016Z,1.82
2023-01-19T22:29:41.948Z,1.79
2023-01-19T22:32:09.039Z,1.76
2023-01-19T22:34:36.286Z,1.74
2023-01-19T22:37:03.469Z,1.71
2023-01-19T22:39:30.591Z,1.69
2023-01-19T22:41:57.849Z,1.67
2023-01-19T22:44:24.986Z,1.66
2023-01-19T22:46:54.602Z,1.66
2023-01-19T22:49:21.958Z,1.65
2023-01-19T22:51:49.129Z,1.62
2023-01-19T22:54:16.149Z,1.62
2023-01-19T22:56:43.404Z,1.62
2023-01-19T22:59:10.558Z,1.60
2023-01-19T23:01:40.712Z,1.59
2023-01-19T23:04:08.433Z,1.57
2023-01-19T23:06:36.434Z,1.56
2023-01-19T23:09:08.388Z,1.55
2023-01-19T23:11:37.192Z,1.56
2023-01-19T23:14:06.415Z,1.55
2023-01-19T23:16:34.593Z,1.52
2023-01-19T23:19:01.852Z,1.51
2023-01-19T23:21:29.832Z,1.49
2023-01-19T23:23:58.337Z,1.50
2023-01-19T23:26:25.792Z,1.52
2023-01-19T23:28:54.656Z,1.53
2023-01-19T23:31:23.711Z,1.54
2023-01-19T23:33:52.065Z,1.55
2023-01-19T23:36:19.620Z,1.54
2023-01-19T23:38:51.026Z,1.55
2023-01-19T23:41:18.959Z,1.53
2023-01-19T23:43:46.101Z,1.51
2023-01-19T23:46:13.719Z,1.49
2023-01-19T23:48:41.133Z,1.47
2023-01-19T23:51:09.685Z,1.46
2023-01-19T23:53:37.012Z,1.45
2023-01-19T23:56:12.080Z,1.43
2023-01-19T23:58:39.232Z,1.40
